sensor_id;sensor_type;location;lat;lon;timestamp;temperature;humidity
21487;DHT22;10905;50.822;4.336;2023-04-03T00:00:28;5.70;99.90
21487;DHT22;10905;50.822;4.336;2023-04-03T00:02:54;5.70;99.90
21487;DHT22;10905;50.822;4.336;2023-04-03T00:05:20;5.70;99.90
21487;DHT22;10905;50.822;4.336;2023-04-03T00:07:45;5.60;99.90
21487;DHT22;10905;50.822;4.336;2023-04-03T00:10:11;5.60;99.90
21487;DHT22;10905;50.822;4.336;2023-04-03T00:12:37;5.60;99.90
21487;DHT22;10905;50.822;4.336;2023-04-03T00:15:03;5.60;99.90
21487;DHT22;10905;50.822;4.336;2023-04-03T00:17:29;5.50;99.90
21487;DHT22;10905;50.822;4.336;2023-04-03T00:19:55;5.50;99.90
21487;DHT22;10905;50.822;4.336;2023-04-03T00:22:20;5.60;99.90
21487;DHT22;10905;50.822;4.336;2023-04-03T00:24:46;5.50;99.90
21487;DHT22;10905;50.822;4.336;2023-04-03T00:27:11;5.50;99.90
21487;DHT22;10905;50.822;4.336;2023-04-03T00:29:37;5.60;99.90
21487;DHT22;10905;50.822;4.336;2023-04-03T00:32:02;5.50;99.90
21487;DHT22;10905;50.822;4.336;2023-04-03T00:34:28;5.50;99.90
21487;DHT22;10905;50.822;4.336;2023-04-03T00:36:54;5.40;99.90
21487;DHT22;10905;50.822;4.336;2023-04-03T00:39:19;5.40;99.90
21487;DHT22;10905;50.822;4.336;2023-04-03T00:41:45;5.40;99.90
21487;DHT22;10905;50.822;4.336;2023-04-03T00:47:12;5.40;99.90
21487;DHT22;10905;50.822;4.336;2023-04-03T00:49:38;5.30;99.90
21487;DHT22;10905;50.822;4.336;2023-04-03T00:52:07;5.30;99.90
21487;DHT22;10905;50.822;4.336;2023-04-03T00:54:36;5.30;99.90
21487;DHT22;10905;50.822;4.336;2023-04-03T00:57:03;5.30;99.90
21487;DHT22;10905;50.822;4.336;2023-04-03T00:59:33;5.30;99.90
21487;DHT22;10905;50.822;4.336;2023-04-03T01:02:00;5.20;99.90
21487;DHT22;10905;50.822;4.336;2023-04-03T01:06:57;5.10;99.90
21487;DHT22;10905;50.822;4.336;2023-04-03T01:09:25;5.10;99.90
21487;DHT22;10905;50.822;4.336;2023-04-03T01:11:51;5.10;99.90
21487;DHT22;10905;50.822;4.336;2023-04-03T01:14:17;5.10;99.90
21487;DHT22;10905;50.822;4.336;2023-04-03T01:16:42;5.10;99.90
21487;DHT22;10905;50.822;4.336;2023-04-03T01:19:11;5.10;99.90
21487;DHT22;10905;50.822;4.336;2023-04-03T01:22:19;5.20;99.90
21487;DHT22;10905;50.822;4.336;2023-04-03T01:24:50;5.10;99.90
21487;DHT22;10905;50.822;4.336;2023-04-03T01:27:18;5.10;99.90
21487;DHT22;10905;50.822;4.336;2023-04-03T01:29:44;5.20;99.90
21487;DHT22;10905;50.822;4.336;2023-04-03T01:32:10;5.10;99.90
21487;DHT22;10905;50.822;4.336;2023-04-03T01:34:36;5.00;99.90
21487;DHT22;10905;50.822;4.336;2023-04-03T01:37:01;5.00;99.90
21487;DHT22;10905;50.822;4.336;2023-04-03T01:39:27;5.00;99.90
21487;DHT22;10905;50.822;4.336;2023-04-03T01:41:53;5.10;99.90
21487;DHT22;10905;50.822;4.336;2023-04-03T01:44:18;5.00;99.90
21487;DHT22;10905;50.822;4.336;2023-04-03T01:46:44;5.00;99.90
21487;DHT22;10905;50.822;4.336;2023-04-03T01:49:10;5.00;99.90
21487;DHT22;10905;50.822;4.336;2023-04-03T01:51:35;5.10;99.90
21487;DHT22;10905;50.822;4.336;2023-04-03T01:54:01;5.10;99.90
21487;DHT22;10905;50.822;4.336;2023-04-03T01:56:26;4.90;99.90
21487;DHT22;10905;50.822;4.336;2023-04-03T01:58:52;5.00;99.90
21487;DHT22;10905;50.822;4.336;2023-04-03T02:01:18;4.90;99.90
21487;DHT22;10905;50.822;4.336;2023-04-03T02:03:43;4.80;99.90
21487;DHT22;10905;50.822;4.336;2023-04-03T02:06:09;4.80;99.90
21487;DHT22;10905;50.822;4.336;2023-04-03T02:08:35;4.70;99.90
21487;DHT22;10905;50.822;4.336;2023-04-03T02:11:00;4.70;99.90
21487;DHT22;10905;50.822;4.336;2023-04-03T02:13:26;4.60;99.90
21487;DHT22;10905;50.822;4.336;2023-04-03T02:15:52;4.50;99.90
21487;DHT22;10905;50.822;4.336;2023-04-03T02:18:17;4.50;99.90
21487;DHT22;10905;50.822;4.336;2023-04-03T02:20:43;4.50;99.90
21487;DHT22;10905;50.822;4.336;2023-04-03T02:23:09;4.40;99.90
21487;DHT22;10905;50.822;4.336;2023-04-03T02:25:35;4.40;99.90
21487;DHT22;10905;50.822;4.336;2023-04-03T02:28:01;4.40;99.90
21487;DHT22;10905;50.822;4.336;2023-04-03T02:30:26;4.40;99.90
21487;DHT22;10905;50.822;4.336;2023-04-03T02:32:52;4.40;99.90
21487;DHT22;10905;50.822;4.336;2023-04-03T02:35:18;4.50;99.90
21487;DHT22;10905;50.822;4.336;2023-04-03T02:37:43;4.50;99.90
21487;DHT22;10905;50.822;4.336;2023-04-03T02:40:09;4.50;99.90
21487;DHT22;10905;50.822;4.336;2023-04-03T02:42:36;4.50;99.90
21487;DHT22;10905;50.822;4.336;2023-04-03T02:45:02;4.40;99.90
21487;DHT22;10905;50.822;4.336;2023-04-03T02:47:28;4.40;99.90
21487;DHT22;10905;50.822;4.336;2023-04-03T02:49:54;4.50;99.90
21487;DHT22;10905;50.822;4.336;2023-04-03T02:52:19;4.50;99.90
21487;DHT22;10905;50.822;4.336;2023-04-03T02:54:45;4.40;99.90
21487;DHT22;10905;50.822;4.336;2023-04-03T02:57:11;4.30;99.90
21487;DHT22;10905;50.822;4.336;2023-04-03T02:59:37;4.40;99.90
21487;DHT22;10905;50.822;4.336;2023-04-03T03:02:06;4.30;99.90
21487;DHT22;10905;50.822;4.336;2023-04-03T03:04:32;4.30;99.90
21487;DHT22;10905;50.822;4.336;2023-04-03T03:06:58;4.30;99.90
21487;DHT22;10905;50.822;4.336;2023-04-03T03:09:23;4.30;99.90
21487;DHT22;10905;50.822;4.336;2023-04-03T03:11:49;4.30;99.90
21487;DHT22;10905;50.822;4.336;2023-04-03T03:14:14;4.30;99.90
21487;DHT22;10905;50.822;4.336;2023-04-03T03:16:40;4.30;99.90
21487;DHT22;10905;50.822;4.336;2023-04-03T03:19:06;4.30;99.90
21487;DHT22;10905;50.822;4.336;2023-04-03T03:21:32;4.20;99.90
21487;DHT22;10905;50.822;4.336;2023-04-03T03:23:57;4.40;99.90
21487;DHT22;10905;50.822;4.336;2023-04-03T03:26:23;4.20;99.90
21487;DHT22;10905;50.822;4.336;2023-04-03T03:28:49;4.30;99.90
21487;DHT22;10905;50.822;4.336;2023-04-03T03:31:14;4.20;99.90
21487;DHT22;10905;50.822;4.336;2023-04-03T03:33:40;4.10;99.90
21487;DHT22;10905;50.822;4.336;2023-04-03T03:36:06;4.10;99.90
21487;DHT22;10905;50.822;4.336;2023-04-03T03:38:32;4.10;99.90
21487;DHT22;10905;50.822;4.336;2023-04-03T03:40:57;4.10;99.90
21487;DHT22;10905;50.822;4.336;2023-04-03T03:43:23;4.20;99.90
21487;DHT22;10905;50.822;4.336;2023-04-03T03:45:52;4.20;99.90
21487;DHT22;10905;50.822;4.336;2023-04-03T03:48:19;4.20;99.90
21487;DHT22;10905;50.822;4.336;2023-04-03T03:50:45;4.20;99.90
21487;DHT22;10905;50.822;4.336;2023-04-03T03:53:11;4.20;99.90
21487;DHT22;10905;50.822;4.336;2023-04-03T03:55:36;4.10;99.90
21487;DHT22;10905;50.822;4.336;2023-04-03T03:58:02;4.10;99.90
21487;DHT22;10905;50.822;4.336;2023-04-03T04:00:28;4.20;99.90
21487;DHT22;10905;50.822;4.336;2023-04-03T04:02:54;4.20;99.90
21487;DHT22;10905;50.822;4.336;2023-04-03T04:05:21;4.20;99.90
21487;DHT22;10905;50.822;4.336;2023-04-03T04:07:47;4.10;99.90
21487;DHT22;10905;50.822;4.336;2023-04-03T04:10:12;4.20;99.90
21487;DHT22;10905;50.822;4.336;2023-04-03T04:12:39;4.00;99.90
21487;DHT22;10905;50.822;4.336;2023-04-03T04:15:05;3.90;99.90
21487;DHT22;10905;50.822;4.336;2023-04-03T04:17:31;3.90;99.90
21487;DHT22;10905;50.822;4.336;2023-04-03T04:19:56;3.90;99.90
21487;DHT22;10905;50.822;4.336;2023-04-03T04:22:22;4.00;99.90
21487;DHT22;10905;50.822;4.336;2023-04-03T04:24:47;4.00;99.90
21487;DHT22;10905;50.822;4.336;2023-04-03T04:27:13;4.00;99.90
21487;DHT22;10905;50.822;4.336;2023-04-03T04:29:38;4.00;99.90
21487;DHT22;10905;50.822;4.336;2023-04-03T04:32:04;4.00;99.90
21487;DHT22;10905;50.822;4.336;2023-04-03T04:34:30;4.10;99.90
21487;DHT22;10905;50.822;4.336;2023-04-03T04:36:56;4.10;99.90
21487;DHT22;10905;50.822;4.336;2023-04-03T04:39:21;4.00;99.90
21487;DHT22;10905;50.822;4.336;2023-04-03T04:41:47;4.10;99.90
21487;DHT22;10905;50.822;4.336;2023-04-03T04:44:13;4.00;99.90
21487;DHT22;10905;50.822;4.336;2023-04-03T04:46:38;4.00;99.90
21487;DHT22;10905;50.822;4.336;2023-04-03T04:49:04;4.10;99.90
21487;DHT22;10905;50.822;4.336;2023-04-03T04:51:30;4.00;99.90
21487;DHT22;10905;50.822;4.336;2023-04-03T04:53:55;4.00;99.90
21487;DHT22;10905;50.822;4.336;2023-04-03T04:56:21;4.00;99.90
21487;DHT22;10905;50.822;4.336;2023-04-03T04:58:47;4.00;99.90
21487;DHT22;10905;50.822;4.336;2023-04-03T05:01:12;4.00;99.90
21487;DHT22;10905;50.822;4.336;2023-04-03T05:03:38;3.90;99.90
21487;DHT22;10905;50.822;4.336;2023-04-03T05:06:04;4.00;99.90
21487;DHT22;10905;50.822;4.336;2023-04-03T05:08:31;4.00;99.90
21487;DHT22;10905;50.822;4.336;2023-04-03T05:10:57;4.00;99.90
21487;DHT22;10905;50.822;4.336;2023-04-03T05:13:22;4.00;99.90
21487;DHT22;10905;50.822;4.336;2023-04-03T05:15:48;4.00;99.90
21487;DHT22;10905;50.822;4.336;2023-04-03T05:18:13;4.00;99.90
21487;DHT22;10905;50.822;4.336;2023-04-03T05:20:39;3.90;99.90
21487;DHT22;10905;50.822;4.336;2023-04-03T05:23:05;3.90;99.90
21487;DHT22;10905;50.822;4.336;2023-04-03T05:25:31;3.90;99.90
21487;DHT22;10905;50.822;4.336;2023-04-03T05:27:57;3.80;99.90
21487;DHT22;10905;50.822;4.336;2023-04-03T05:30:23;3.80;99.90
21487;DHT22;10905;50.822;4.336;2023-04-03T05:32:48;3.80;99.90
21487;DHT22;10905;50.822;4.336;2023-04-03T05:35:14;3.90;99.90
21487;DHT22;10905;50.822;4.336;2023-04-03T05:37:40;3.90;99.90
21487;DHT22;10905;50.822;4.336;2023-04-03T05:40:07;3.90;99.90
21487;DHT22;10905;50.822;4.336;2023-04-03T05:42:33;4.00;99.90
21487;DHT22;10905;50.822;4.336;2023-04-03T05:44:59;3.90;99.90
21487;DHT22;10905;50.822;4.336;2023-04-03T05:47:24;4.00;99.90
21487;DHT22;10905;50.822;4.336;2023-04-03T05:49:50;3.90;99.90
21487;DHT22;10905;50.822;4.336;2023-04-03T05:52:26;4.00;99.90
21487;DHT22;10905;50.822;4.336;2023-04-03T05:54:52;4.00;99.90
21487;DHT22;10905;50.822;4.336;2023-04-03T05:57:18;4.10;99.90
21487;DHT22;10905;50.822;4.336;2023-04-03T05:59:44;4.00;99.90
21487;DHT22;10905;50.822;4.336;2023-04-03T06:02:16;4.00;99.90
21487;DHT22;10905;50.822;4.336;2023-04-03T06:04:42;4.10;99.90
21487;DHT22;10905;50.822;4.336;2023-04-03T06:07:12;4.20;99.90
21487;DHT22;10905;50.822;4.336;2023-04-03T06:09:39;4.20;99.90
21487;DHT22;10905;50.822;4.336;2023-04-03T06:12:05;4.20;99.90
21487;DHT22;10905;50.822;4.336;2023-04-03T06:14:30;4.20;99.90
21487;DHT22;10905;50.822;4.336;2023-04-03T06:16:56;4.20;99.90
21487;DHT22;10905;50.822;4.336;2023-04-03T06:19:22;4.40;99.90
21487;DHT22;10905;50.822;4.336;2023-04-03T06:21:48;4.30;99.90
21487;DHT22;10905;50.822;4.336;2023-04-03T06:24:15;4.40;99.90
21487;DHT22;10905;50.822;4.336;2023-04-03T06:26:42;4.40;99.90
21487;DHT22;10905;50.822;4.336;2023-04-03T06:29:08;4.50;99.90
21487;DHT22;10905;50.822;4.336;2023-04-03T06:31:34;4.50;99.90
21487;DHT22;10905;50.822;4.336;2023-04-03T06:34:02;4.40;99.90
21487;DHT22;10905;50.822;4.336;2023-04-03T06:36:28;4.40;99.90
21487;DHT22;10905;50.822;4.336;2023-04-03T06:38:54;4.40;99.90
21487;DHT22;10905;50.822;4.336;2023-04-03T06:41:20;4.50;99.90
21487;DHT22;10905;50.822;4.336;2023-04-03T06:43:46;4.50;99.90
21487;DHT22;10905;50.822;4.336;2023-04-03T06:46:14;4.60;99.90
21487;DHT22;10905;50.822;4.336;2023-04-03T06:48:40;4.70;99.90
21487;DHT22;10905;50.822;4.336;2023-04-03T06:51:17;4.80;99.90
21487;DHT22;10905;50.822;4.336;2023-04-03T06:53:44;4.80;99.90
21487;DHT22;10905;50.822;4.336;2023-04-03T06:56:09;4.80;99.90
21487;DHT22;10905;50.822;4.336;2023-04-03T06:58:35;4.80;99.90
21487;DHT22;10905;50.822;4.336;2023-04-03T07:01:01;4.70;99.90
21487;DHT22;10905;50.822;4.336;2023-04-03T07:03:27;4.70;99.90
21487;DHT22;10905;50.822;4.336;2023-04-03T07:05:53;4.70;99.90
21487;DHT22;10905;50.822;4.336;2023-04-03T07:08:18;4.80;99.90
21487;DHT22;10905;50.822;4.336;2023-04-03T07:10:44;4.80;99.90
21487;DHT22;10905;50.822;4.336;2023-04-03T07:13:09;4.80;99.90
21487;DHT22;10905;50.822;4.336;2023-04-03T07:15:35;4.90;99.90
21487;DHT22;10905;50.822;4.336;2023-04-03T07:18:02;4.80;99.90
21487;DHT22;10905;50.822;4.336;2023-04-03T07:20:28;4.80;99.90
21487;DHT22;10905;50.822;4.336;2023-04-03T07:22:53;4.70;99.90
21487;DHT22;10905;50.822;4.336;2023-04-03T07:25:19;4.80;99.90
21487;DHT22;10905;50.822;4.336;2023-04-03T07:27:45;4.80;99.90
21487;DHT22;10905;50.822;4.336;2023-04-03T07:30:11;4.90;99.90
21487;DHT22;10905;50.822;4.336;2023-04-03T07:32:37;4.80;99.90
21487;DHT22;10905;50.822;4.336;2023-04-03T07:35:03;4.80;99.90
21487;DHT22;10905;50.822;4.336;2023-04-03T07:37:29;4.80;99.90
21487;DHT22;10905;50.822;4.336;2023-04-03T07:39:55;5.00;99.90
21487;DHT22;10905;50.822;4.336;2023-04-03T07:42:22;5.00;99.90
21487;DHT22;10905;50.822;4.336;2023-04-03T07:44:48;5.00;99.90
21487;DHT22;10905;50.822;4.336;2023-04-03T07:47:13;5.20;99.90
21487;DHT22;10905;50.822;4.336;2023-04-03T07:49:41;5.30;99.90
21487;DHT22;10905;50.822;4.336;2023-04-03T07:52:07;5.40;99.90
21487;DHT22;10905;50.822;4.336;2023-04-03T07:54:34;5.50;99.90
21487;DHT22;10905;50.822;4.336;2023-04-03T07:57:00;5.60;99.90
21487;DHT22;10905;50.822;4.336;2023-04-03T07:59:26;5.50;99.90
21487;DHT22;10905;50.822;4.336;2023-04-03T08:01:52;5.70;99.90
21487;DHT22;10905;50.822;4.336;2023-04-03T08:04:18;5.50;99.90
21487;DHT22;10905;50.822;4.336;2023-04-03T08:06:43;5.40;99.90
21487;DHT22;10905;50.822;4.336;2023-04-03T08:09:09;5.60;99.90
21487;DHT22;10905;50.822;4.336;2023-04-03T08:11:34;5.70;99.90
21487;DHT22;10905;50.822;4.336;2023-04-03T08:14:02;5.70;99.90
21487;DHT22;10905;50.822;4.336;2023-04-03T08:16:28;6.00;99.90
21487;DHT22;10905;50.822;4.336;2023-04-03T08:18:54;6.10;99.90
21487;DHT22;10905;50.822;4.336;2023-04-03T08:21:21;6.10;99.90
21487;DHT22;10905;50.822;4.336;2023-04-03T08:23:49;6.30;99.90
21487;DHT22;10905;50.822;4.336;2023-04-03T08:26:17;6.30;99.90
21487;DHT22;10905;50.822;4.336;2023-04-03T08:28:44;6.20;99.90
21487;DHT22;10905;50.822;4.336;2023-04-03T08:31:13;6.30;99.90
21487;DHT22;10905;50.822;4.336;2023-04-03T08:33:39;6.30;99.90
21487;DHT22;10905;50.822;4.336;2023-04-03T08:36:06;6.40;99.90
21487;DHT22;10905;50.822;4.336;2023-04-03T08:38:33;6.50;99.90
21487;DHT22;10905;50.822;4.336;2023-04-03T08:46:23;6.50;99.90
21487;DHT22;10905;50.822;4.336;2023-04-03T08:48:51;6.60;99.90
21487;DHT22;10905;50.822;4.336;2023-04-03T08:51:20;6.40;99.90
21487;DHT22;10905;50.822;4.336;2023-04-03T08:54:06;6.40;99.90
21487;DHT22;10905;50.822;4.336;2023-04-03T08:56:39;6.50;99.90
21487;DHT22;10905;50.822;4.336;2023-04-03T08:59:12;6.50;99.90
21487;DHT22;10905;50.822;4.336;2023-04-03T09:01:40;6.60;99.90
21487;DHT22;10905;50.822;4.336;2023-04-03T09:04:15;6.60;99.90
21487;DHT22;10905;50.822;4.336;2023-04-03T09:06:45;6.70;99.90
21487;DHT22;10905;50.822;4.336;2023-04-03T09:12:18;6.80;99.90
21487;DHT22;10905;50.822;4.336;2023-04-03T09:20:21;7.10;99.90
21487;DHT22;10905;50.822;4.336;2023-04-03T09:22:50;7.10;99.90
21487;DHT22;10905;50.822;4.336;2023-04-03T09:25:27;7.10;99.90
21487;DHT22;10905;50.822;4.336;2023-04-03T09:27:55;7.00;99.90
21487;DHT22;10905;50.822;4.336;2023-04-03T09:30:25;7.10;99.90
21487;DHT22;10905;50.822;4.336;2023-04-03T09:32:53;7.10;99.90
21487;DHT22;10905;50.822;4.336;2023-04-03T09:35:34;7.00;99.90
21487;DHT22;10905;50.822;4.336;2023-04-03T09:40:40;7.00;99.90
21487;DHT22;10905;50.822;4.336;2023-04-03T09:43:29;7.10;99.90
21487;DHT22;10905;50.822;4.336;2023-04-03T09:45:56;7.30;99.90
21487;DHT22;10905;50.822;4.336;2023-04-03T09:48:24;7.30;99.90
21487;DHT22;10905;50.822;4.336;2023-04-03T09:53:34;7.40;99.90
21487;DHT22;10905;50.822;4.336;2023-04-03T09:56:24;7.60;99.90
21487;DHT22;10905;50.822;4.336;2023-04-03T10:06:33;7.60;99.90
21487;DHT22;10905;50.822;4.336;2023-04-03T10:09:05;7.80;99.90
21487;DHT22;10905;50.822;4.336;2023-04-03T10:11:31;7.80;99.90
21487;DHT22;10905;50.822;4.336;2023-04-03T10:13:59;7.90;99.90
21487;DHT22;10905;50.822;4.336;2023-04-03T10:16:33;8.10;99.90
21487;DHT22;10905;50.822;4.336;2023-04-03T10:19:24;8.20;99.90
21487;DHT22;10905;50.822;4.336;2023-04-03T10:22:13;8.40;99.90
21487;DHT22;10905;50.822;4.336;2023-04-03T10:24:59;8.50;99.90
21487;DHT22;10905;50.822;4.336;2023-04-03T10:27:43;8.30;99.90
21487;DHT22;10905;50.822;4.336;2023-04-03T10:38:59;8.70;99.90
21487;DHT22;10905;50.822;4.336;2023-04-03T10:47:11;8.70;99.90
21487;DHT22;10905;50.822;4.336;2023-04-03T10:52:47;8.90;99.90
21487;DHT22;10905;50.822;4.336;2023-04-03T10:57:39;8.70;99.90
21487;DHT22;10905;50.822;4.336;2023-04-03T11:00:14;8.80;99.90
21487;DHT22;10905;50.822;4.336;2023-04-03T11:02:51;8.90;99.90
21487;DHT22;10905;50.822;4.336;2023-04-03T11:07:57;9.00;99.90
21487;DHT22;10905;50.822;4.336;2023-04-03T11:10:41;9.00;99.90
21487;DHT22;10905;50.822;4.336;2023-04-03T11:13:24;8.90;99.90
21487;DHT22;10905;50.822;4.336;2023-04-03T11:15:53;8.90;99.90
21487;DHT22;10905;50.822;4.336;2023-04-03T11:18:45;9.00;99.90
21487;DHT22;10905;50.822;4.336;2023-04-03T11:21:20;9.10;99.90
21487;DHT22;10905;50.822;4.336;2023-04-03T11:23:47;9.10;99.90
21487;DHT22;10905;50.822;4.336;2023-04-03T11:26:22;8.90;99.90
21487;DHT22;10905;50.822;4.336;2023-04-03T11:28:53;8.90;99.90
21487;DHT22;10905;50.822;4.336;2023-04-03T11:34:41;9.00;99.90
21487;DHT22;10905;50.822;4.336;2023-04-03T11:37:20;9.10;99.90
21487;DHT22;10905;50.822;4.336;2023-04-03T11:39:56;9.20;99.90
21487;DHT22;10905;50.822;4.336;2023-04-03T11:47:49;9.50;99.90
21487;DHT22;10905;50.822;4.336;2023-04-03T12:29:34;9.90;99.90
21487;DHT22;10905;50.822;4.336;2023-04-03T12:40:46;9.60;99.90
21487;DHT22;10905;50.822;4.336;2023-04-03T12:48:27;9.80;96.90
21487;DHT22;10905;50.822;4.336;2023-04-03T12:50:54;9.70;96.00
21487;DHT22;10905;50.822;4.336;2023-04-03T12:53:47;9.80;96.40
21487;DHT22;10905;50.822;4.336;2023-04-03T12:56:28;9.80;96.30
21487;DHT22;10905;50.822;4.336;2023-04-03T12:59:12;9.90;96.30
21487;DHT22;10905;50.822;4.336;2023-04-03T13:01:38;10.10;98.70
21487;DHT22;10905;50.822;4.336;2023-04-03T13:04:04;10.20;96.20
21487;DHT22;10905;50.822;4.336;2023-04-03T13:06:48;10.40;95.80
21487;DHT22;10905;50.822;4.336;2023-04-03T13:09:29;10.20;93.80
21487;DHT22;10905;50.822;4.336;2023-04-03T13:12:02;10.10;93.90
21487;DHT22;10905;50.822;4.336;2023-04-03T13:14:29;10.00;94.80
21487;DHT22;10905;50.822;4.336;2023-04-03T13:17:03;10.30;95.40
21487;DHT22;10905;50.822;4.336;2023-04-03T13:19:30;10.30;93.40
21487;DHT22;10905;50.822;4.336;2023-04-03T13:22:53;10.20;93.90
21487;DHT22;10905;50.822;4.336;2023-04-03T13:24:54;10.00;92.30
21487;DHT22;10905;50.822;4.336;2023-04-03T13:27:20;10.10;92.50
21487;DHT22;10905;50.822;4.336;2023-04-03T13:29:54;10.10;91.80
21487;DHT22;10905;50.822;4.336;2023-04-03T13:32:25;10.20;93.50
21487;DHT22;10905;50.822;4.336;2023-04-03T13:34:51;10.20;91.20
21487;DHT22;10905;50.822;4.336;2023-04-03T13:42:36;10.20;89.80
21487;DHT22;10905;50.822;4.336;2023-04-03T13:45:22;10.20;90.30
21487;DHT22;10905;50.822;4.336;2023-04-03T13:47:51;10.10;88.70
21487;DHT22;10905;50.822;4.336;2023-04-03T13:50:22;10.10;89.80
21487;DHT22;10905;50.822;4.336;2023-04-03T13:53:11;10.20;90.60
21487;DHT22;10905;50.822;4.336;2023-04-03T13:58:31;10.40;90.30
21487;DHT22;10905;50.822;4.336;2023-04-03T14:06:15;10.70;90.60
21487;DHT22;10905;50.822;4.336;2023-04-03T14:08:42;10.80;90.30
21487;DHT22;10905;50.822;4.336;2023-04-03T14:11:14;10.80;91.50
21487;DHT22;10905;50.822;4.336;2023-04-03T14:13:40;10.80;91.90
21487;DHT22;10905;50.822;4.336;2023-04-03T14:16:06;10.90;92.90
21487;DHT22;10905;50.822;4.336;2023-04-03T14:18:31;11.00;90.70
21487;DHT22;10905;50.822;4.336;2023-04-03T14:20:57;11.10;91.40
21487;DHT22;10905;50.822;4.336;2023-04-03T14:23:23;11.10;91.70
21487;DHT22;10905;50.822;4.336;2023-04-03T14:25:48;11.10;92.20
21487;DHT22;10905;50.822;4.336;2023-04-03T14:28:19;10.90;87.20
21487;DHT22;10905;50.822;4.336;2023-04-03T14:30:47;10.70;90.20
21487;DHT22;10905;50.822;4.336;2023-04-03T14:33:15;10.80;92.10
21487;DHT22;10905;50.822;4.336;2023-04-03T14:35:42;10.80;90.40
21487;DHT22;10905;50.822;4.336;2023-04-03T14:38:25;10.80;88.70
21487;DHT22;10905;50.822;4.336;2023-04-03T14:40:51;10.60;87.40
21487;DHT22;10905;50.822;4.336;2023-04-03T14:43:17;10.50;89.00
21487;DHT22;10905;50.822;4.336;2023-04-03T14:45:43;10.70;91.10
21487;DHT22;10905;50.822;4.336;2023-04-03T14:48:17;10.80;91.20
21487;DHT22;10905;50.822;4.336;2023-04-03T14:50:43;10.90;88.20
21487;DHT22;10905;50.822;4.336;2023-04-03T14:53:12;11.00;89.50
21487;DHT22;10905;50.822;4.336;2023-04-03T14:55:41;11.10;90.00
21487;DHT22;10905;50.822;4.336;2023-04-03T14:58:15;11.00;87.90
21487;DHT22;10905;50.822;4.336;2023-04-03T15:00:42;11.00;88.00
21487;DHT22;10905;50.822;4.336;2023-04-03T15:03:21;11.00;86.50
21487;DHT22;10905;50.822;4.336;2023-04-03T15:05:48;11.10;88.90
21487;DHT22;10905;50.822;4.336;2023-04-03T15:08:21;11.00;89.10
21487;DHT22;10905;50.822;4.336;2023-04-03T15:10:48;11.10;90.10
21487;DHT22;10905;50.822;4.336;2023-04-03T15:13:14;11.00;90.00
21487;DHT22;10905;50.822;4.336;2023-04-03T15:15:40;11.10;90.30
21487;DHT22;10905;50.822;4.336;2023-04-03T15:18:06;11.30;89.40
21487;DHT22;10905;50.822;4.336;2023-04-03T15:20:32;11.40;87.40
21487;DHT22;10905;50.822;4.336;2023-04-03T15:22:59;11.30;87.50
21487;DHT22;10905;50.822;4.336;2023-04-03T15:25:29;11.20;83.30
21487;DHT22;10905;50.822;4.336;2023-04-03T15:27:56;11.30;86.30
21487;DHT22;10905;50.822;4.336;2023-04-03T15:30:22;11.30;85.10
21487;DHT22;10905;50.822;4.336;2023-04-03T15:32:48;11.20;83.80
21487;DHT22;10905;50.822;4.336;2023-04-03T15:35:14;11.30;82.50
21487;DHT22;10905;50.822;4.336;2023-04-03T15:37:40;11.40;82.40
21487;DHT22;10905;50.822;4.336;2023-04-03T15:40:08;11.40;83.90
21487;DHT22;10905;50.822;4.336;2023-04-03T15:42:34;11.30;85.60
21487;DHT22;10905;50.822;4.336;2023-04-03T15:45:00;11.30;84.10
21487;DHT22;10905;50.822;4.336;2023-04-03T15:47:26;11.30;84.30
21487;DHT22;10905;50.822;4.336;2023-04-03T15:49:53;11.10;80.20
21487;DHT22;10905;50.822;4.336;2023-04-03T15:52:20;11.20;84.70
21487;DHT22;10905;50.822;4.336;2023-04-03T15:54:45;11.20;83.10
21487;DHT22;10905;50.822;4.336;2023-04-03T15:57:11;11.20;80.20
21487;DHT22;10905;50.822;4.336;2023-04-03T15:59:36;11.20;82.40
21487;DHT22;10905;50.822;4.336;2023-04-03T16:02:04;11.40;87.10
21487;DHT22;10905;50.822;4.336;2023-04-03T16:04:32;11.50;81.10
21487;DHT22;10905;50.822;4.336;2023-04-03T16:07:02;11.40;84.10
21487;DHT22;10905;50.822;4.336;2023-04-03T16:09:27;11.60;86.70
21487;DHT22;10905;50.822;4.336;2023-04-03T16:11:53;11.50;84.70
21487;DHT22;10905;50.822;4.336;2023-04-03T16:14:18;11.20;84.80
21487;DHT22;10905;50.822;4.336;2023-04-03T16:16:44;11.20;87.60
21487;DHT22;10905;50.822;4.336;2023-04-03T16:19:10;11.10;85.30
21487;DHT22;10905;50.822;4.336;2023-04-03T16:21:36;11.10;90.30
21487;DHT22;10905;50.822;4.336;2023-04-03T16:24:02;11.20;87.50
21487;DHT22;10905;50.822;4.336;2023-04-03T16:26:28;11.10;88.30
21487;DHT22;10905;50.822;4.336;2023-04-03T16:28:54;11.00;88.70
21487;DHT22;10905;50.822;4.336;2023-04-03T16:31:20;11.10;90.20
21487;DHT22;10905;50.822;4.336;2023-04-03T16:33:46;11.20;90.60
21487;DHT22;10905;50.822;4.336;2023-04-03T16:36:12;11.10;91.20
21487;DHT22;10905;50.822;4.336;2023-04-03T16:38:37;11.00;90.20
21487;DHT22;10905;50.822;4.336;2023-04-03T16:41:03;11.00;91.10
21487;DHT22;10905;50.822;4.336;2023-04-03T16:43:31;11.00;90.40
21487;DHT22;10905;50.822;4.336;2023-04-03T16:45:57;11.00;91.10
21487;DHT22;10905;50.822;4.336;2023-04-03T16:48:23;10.90;91.50
21487;DHT22;10905;50.822;4.336;2023-04-03T16:50:49;11.00;92.20
21487;DHT22;10905;50.822;4.336;2023-04-03T16:53:17;11.00;91.20
21487;DHT22;10905;50.822;4.336;2023-04-03T16:55:43;11.10;92.10
21487;DHT22;10905;50.822;4.336;2023-04-03T16:58:08;11.20;91.60
21487;DHT22;10905;50.822;4.336;2023-04-03T17:00:35;11.00;90.70
21487;DHT22;10905;50.822;4.336;2023-04-03T17:03:01;10.90;91.20
21487;DHT22;10905;50.822;4.336;2023-04-03T17:05:27;10.90;92.00
21487;DHT22;10905;50.822;4.336;2023-04-03T17:07:53;11.00;91.70
21487;DHT22;10905;50.822;4.336;2023-04-03T17:10:18;10.90;91.70
21487;DHT22;10905;50.822;4.336;2023-04-03T17:12:44;10.90;92.00
21487;DHT22;10905;50.822;4.336;2023-04-03T17:15:10;11.00;92.30
21487;DHT22;10905;50.822;4.336;2023-04-03T17:17:36;10.90;92.10
21487;DHT22;10905;50.822;4.336;2023-04-03T17:20:02;10.70;92.00
21487;DHT22;10905;50.822;4.336;2023-04-03T17:22:29;10.70;92.50
21487;DHT22;10905;50.822;4.336;2023-04-03T17:24:54;10.60;93.60
21487;DHT22;10905;50.822;4.336;2023-04-03T17:27:20;10.40;92.20
21487;DHT22;10905;50.822;4.336;2023-04-03T17:29:46;10.30;93.90
21487;DHT22;10905;50.822;4.336;2023-04-03T17:32:12;10.30;93.00
21487;DHT22;10905;50.822;4.336;2023-04-03T17:34:37;10.20;93.30
21487;DHT22;10905;50.822;4.336;2023-04-03T17:37:04;10.00;93.30
21487;DHT22;10905;50.822;4.336;2023-04-03T17:39:30;10.10;93.80
21487;DHT22;10905;50.822;4.336;2023-04-03T17:41:55;10.00;93.00
21487;DHT22;10905;50.822;4.336;2023-04-03T17:44:21;9.90;93.50
21487;DHT22;10905;50.822;4.336;2023-04-03T17:46:47;9.80;93.80
21487;DHT22;10905;50.822;4.336;2023-04-03T17:49:12;9.80;94.10
21487;DHT22;10905;50.822;4.336;2023-04-03T17:51:40;9.80;94.40
21487;DHT22;10905;50.822;4.336;2023-04-03T17:54:06;9.80;94.60
21487;DHT22;10905;50.822;4.336;2023-04-03T17:56:32;9.70;95.50